Latest Weather Observations for Portland Airport

IDV60801

Issued at 2:33 am EST Friday 28 April 2017 (issued every 30 minutes, with the page automatically refreshed every 10 minutes)

About weather observations | Map of weather stations | Latest weather observations for VIC | Other Formats
Station Details ID: 090171 Name: CASHMORE AIRPORT Lat: -38.31 Lon: 141.47 Height: 80.9 m
Data from the previous 72 hours. | See also: Recent months at Portland Airport
Date/Time
EST
Temp
°C
App
Temp
°C
Dew
Point
°C
Rel
Hum
%
Delta-T
°C
Wind Press
QNH
hPa
Press
MSL
hPa
Rain since
9am
mm
Dir  Spd
km/h
Gust
km/h
Spd
kts
Gust
kts
28/02:30am 13.4 10.8 12.0 91 0.8 WNW 17 22 9 12 1022.8 1022.8 3.0
28/02:14am 13.3 10.6 11.7 90 0.9 WNW 17 24 9 13 1022.9 1022.9 3.0
28/02:03am 13.1 10.3 11.5 90 0.8 WNW 17 26 9 14 1022.9 1022.9 3.0
28/02:01am 13.1 10.3 11.5 90 0.8 WNW 17 26 9 14 1023.0 1023.0 3.0
28/02:00am 13.1 10.0 11.5 90 0.8 WNW 19 26 10 14 1023.0 1023.0 3.0
28/01:30am 12.9 10.1 11.3 90 0.8 NW 17 24 9 13 1022.9 1022.9 3.0
28/01:00am 13.1 10.3 11.3 89 1.0 WNW 17 22 9 12 1023.0 1023.0 3.0
28/12:30am 13.3 10.5 11.5 89 1.0 NW 17 20 9 11 1023.1 1023.1 3.0
28/12:23am 13.3 10.9 11.5 89 1.0 NW 15 20 8 11 1023.1 1023.1 3.0
28/12:00am 13.4 11.0 11.5 88 1.0 WNW 15 22 8 12 1023.2 1023.2 3.0
 
Date/Time
EST
Temp
°C
App
Temp
°C
Dew
Point
°C
Rel
Hum
%
Delta-T
°C
Wind Press
QNH
hPa
Press
MSL
hPa
Rain since
9am
mm
Dir  Spd
km/h
Gust
km/h
Spd
kts
Gust
kts
27/11:51pm 13.5 11.2 11.6 88 1.0 WNW 15 20 8 11 1023.2 1023.2 3.0
27/11:30pm 13.8 11.1 11.8 88 1.1 WNW 17 20 9 11 1023.4 1023.4 3.0
27/11:00pm 13.8 11.1 11.8 88 1.1 W 17 24 9 13 1023.5 1023.5 3.0
27/10:30pm 13.6 10.6 11.8 89 1.0 W 19 26 10 14 1023.6 1023.6 3.0
27/10:00pm 13.3 10.6 11.7 90 0.9 W 17 22 9 12 1023.4 1023.4 3.0
27/09:30pm 12.9 10.8 11.3 90 0.8 W 13 17 7 9 1023.6 1023.6 3.0
27/09:00pm 13.0 9.2 11.2 89 0.9 W 22 32 12 17 1023.5 1023.5 2.8
27/08:30pm 13.1 10.3 11.2 88 1.0 W 17 20 9 11 1023.6 1023.6 2.6
27/08:00pm 13.0 10.9 11.1 88 1.0 W 13 17 7 9 1023.6 1023.6 2.6
27/07:30pm 12.8 9.9 11.0 89 0.9 W 17 24 9 13 1023.5 1023.5 2.6
27/07:00pm 12.5 9.5 10.7 89 0.9 WNW 17 20 9 11 1023.5 1023.5 2.6
27/06:30pm 12.5 8.9 10.7 89 0.9 W 20 30 11 16 1023.3 1023.3 2.6
27/06:13pm 12.4 9.1 10.8 90 0.8 W 19 28 10 15 1023.3 1023.3 2.6
27/06:00pm 12.5 9.6 10.9 90 0.8 W 17 28 9 15 1023.2 1023.2 2.4
27/05:56pm 12.5 9.5 10.7 89 0.9 W 17 22 9 12 1023.3 1023.3 2.4
27/05:49pm 12.5 9.1 10.7 89 0.9 W 19 26 10 14 1023.2 1023.2 1.8
27/05:31pm 12.7 8.4 10.8 88 1.0 W 24 35 13 19 1023.1 1023.1 1.8
27/05:30pm 12.7 8.8 10.8 88 1.0 W 22 35 12 19 1023.1 1023.1 1.6
27/05:00pm 12.7 9.4 10.8 88 1.0 WNW 19 26 10 14 1023.1 1023.1 1.4
27/04:30pm 12.8 9.4 10.7 87 1.1 WNW 19 26 10 14 1023.4 1023.4 1.4
27/04:19pm 12.7 9.3 10.6 87 1.1 WNW 19 24 10 13 1023.3 1023.3 1.4
27/04:03pm 12.5 9.8 10.2 86 1.2 W 15 22 8 12 1023.6 1023.6 1.4
27/04:00pm 12.6 9.8 10.1 85 1.3 W 15 22 8 12 1023.5 1023.5 0.6
27/03:56pm 12.5 10.1 10.0 85 1.3 W 13 19 7 10 1023.5 1023.5 0.2
27/03:39pm 12.4 7.4 9.6 83 1.4 WSW 26 37 14 20 1023.8 1023.8 0.2
27/03:30pm 12.6 9.7 9.6 82 1.5 WSW 15 33 8 18 1023.8 1023.8 0.2
27/03:00pm 13.6 9.8 9.8 78 2.0 W 20 26 11 14 1023.8 1023.8 0.0
27/02:30pm 13.5 9.5 10.3 81 1.7 W 22 28 12 15 1024.0 1024.0 0.0
27/02:04pm 12.6 8.9 9.6 82 1.5 W 19 24 10 13 1024.2 1024.2 0.0
27/02:00pm 12.7 9.1 9.7 82 1.5 W 19 26 10 14 1024.2 1024.2 0.0
27/01:46pm 12.5 8.3 8.2 75 2.1 W 20 30 11 16 1024.4 1024.4 0.0
27/01:30pm 14.0 9.5 8.4 69 2.8 W 22 33 12 18 1024.3 1024.3 0.0
27/01:00pm 14.4 9.5 8.6 68 2.9 W 24 30 13 16 1024.5 1024.5 0.0
27/12:30pm 13.8 9.1 7.8 67 3.0 W 22 28 12 15 1024.8 1024.8 0.0
27/12:00pm 14.9 10.7 8.4 65 3.3 WSW 20 28 11 15 1024.9 1024.9 0.0
27/11:30am 13.6 8.7 6.9 64 3.3 W 22 30 12 16 1025.2 1025.1 0.0
27/11:00am 14.5 10.1 7.5 63 3.4 W 20 28 11 15 1025.3 1025.2 0.0
27/10:30am 14.0 9.2 7.5 65 3.2 W 22 30 12 16 1025.0 1025.0 0.0
27/10:00am 13.7 9.5 7.5 66 3.0 WSW 19 26 10 14 1024.8 1024.8 0.0
27/09:30am 13.5 10.0 7.1 65 3.1 WSW 15 20 8 11 1025.0 1025.0 0.0
27/09:00am 12.8 9.8 7.7 71 2.5 WSW 13 20 7 11 1025.2 1025.1 1.0
27/08:30am 12.0 8.9 7.3 73 2.3 WSW 13 19 7 10 1024.9 1024.9 1.0
27/08:00am 9.9 7.4 6.4 79 1.6 WSW 9 11 5 6 1024.8 1024.8 1.0
27/07:30am 8.9 6.0 4.9 76 1.8 WSW 9 13 5 7 1024.5 1024.5 1.0
27/07:00am 9.1 6.7 4.5 73 2.0 W 6 7 3 4 1024.2 1024.2 1.0
27/06:30am 9.9 6.7 5.1 72 2.2 SW 11 13 6 7 1024.1 1024.1 1.0
27/06:00am 9.4 6.1 4.6 72 2.1 SW 11 15 6 8 1024.1 1024.1 1.0
27/05:30am 8.9 5.1 3.9 71 2.2 WSW 13 15 7 8 1023.9 1023.9 1.0
27/05:00am 9.9 6.6 4.7 70 2.3 WSW 11 17 6 9 1023.6 1023.6 1.0
27/04:30am 10.1 7.2 4.7 69 2.4 SW 9 13 5 7 1023.1 1023.1 1.0
27/04:00am 10.2 6.8 4.1 66 2.7 SW 11 19 6 10 1023.1 1023.1 1.0
27/03:30am 10.1 6.7 4.0 66 2.7 SW 11 17 6 9 1023.2 1023.2 1.0
27/03:00am 10.2 7.2 3.9 65 2.8 SW 9 11 5 6 1023.3 1023.3 1.0
27/02:30am 10.7 7.2 3.5 61 3.2 SW 11 17 6 9 1023.3 1023.3 1.0
27/02:00am 10.9 6.9 3.0 58 3.4 SSW 13 22 7 12 1023.3 1023.3 1.0
27/01:30am 11.1 7.2 3.2 58 3.5 S 13 20 7 11 1023.2 1023.2 1.0
27/01:00am 11.0 7.5 3.3 59 3.4 SSW 11 17 6 9 1023.2 1023.2 1.0
27/12:30am 10.7 6.7 2.8 58 3.4 SSW 13 22 7 12 1023.0 1023.0 1.0
27/12:00am 10.8 6.5 3.1 59 3.3 S 15 22 8 12 1023.1 1023.1 1.0
 
Date/Time
EST
Temp
°C
App
Temp
°C
Dew
Point
°C
Rel
Hum
%
Delta-T
°C
Wind Press
QNH
hPa
Press
MSL
hPa
Rain since
9am
mm
Dir  Spd
km/h
Gust
km/h
Spd
kts
Gust
kts
26/11:30pm 11.0 7.0 3.1 58 3.5 SSW 13 22 7 12 1022.9 1022.9 1.0
26/11:00pm 11.0 7.3 4.2 63 3.0 SSW 13 22 7 12 1022.9 1022.9 1.0
26/10:30pm 10.8 6.6 3.8 62 3.1 SSW 15 22 8 12 1022.8 1022.8 1.0
26/10:00pm 10.8 6.3 4.0 63 3.0 SSW 17 26 9 14 1022.6 1022.6 1.0
26/09:30pm 10.8 6.1 3.4 60 3.3 SSW 17 28 9 15 1022.4 1022.4 1.0
26/09:00pm 10.9 6.5 5.0 67 2.7 SSW 17 26 9 14 1022.2 1022.2 1.0
26/08:30pm 11.2 6.2 3.7 60 3.3 SSW 19 33 10 18 1021.8 1021.8 1.0
26/08:00pm 10.8 6.2 3.6 61 3.2 SSW 17 28 9 15 1021.7 1021.7 1.0
26/07:30pm 10.9 5.9 3.5 60 3.3 SSW 19 33 10 18 1021.5 1021.5 1.0
26/07:00pm 10.6 6.4 5.6 71 2.3 S 17 28 9 15 1021.2 1021.2 1.0
26/06:30pm 10.6 6.1 4.3 65 2.8 SSW 17 28 9 15 1020.9 1020.9 1.0
26/06:00pm 10.7 5.8 4.0 63 3.0 SSW 19 32 10 17 1020.6 1020.6 1.0
26/05:30pm 10.7 6.3 4.8 67 2.7 SSW 17 24 9 13 1020.2 1020.2 1.0
26/05:00pm 11.2 6.0 3.7 60 3.3 SW 20 33 11 18 1019.9 1019.9 1.0
26/04:30pm 11.7 7.2 4.2 60 3.4 SW 17 28 9 15 1019.5 1019.5 1.0
26/04:00pm 11.7 5.7 3.5 57 3.6 SW 24 37 13 20 1019.3 1019.3 1.0
26/03:30pm 11.0 6.2 4.9 66 2.8 SW 19 33 10 18 1019.1 1019.1 1.0
26/03:00pm 10.2 4.9 4.8 69 2.4 SW 22 33 12 18 1019.1 1019.1 0.8
26/02:30pm 8.9 3.1 4.5 74 2.0 SW 24 37 13 20 1018.8 1018.8 0.8
26/02:00pm 11.3 5.6 5.0 65 2.9 SW 24 35 13 19 1018.8 1018.8 0.8
26/01:30pm 11.1 5.0 6.6 74 2.1 SW 28 37 15 20 1018.7 1018.7 0.8
26/01:00pm 9.7 4.9 4.9 72 2.2 SSW 19 37 10 20 1018.7 1018.7 0.6
26/12:30pm 12.0 6.8 3.5 56 3.8 SSW 20 32 11 17 1018.4 1018.4 0.0
26/12:00pm 11.9 6.8 3.9 58 3.6 SSW 20 35 11 19 1018.6 1018.6 0.0
26/11:30am 11.4 5.7 2.7 55 3.8 SSW 22 35 12 19 1018.4 1018.4 0.0
26/11:00am 12.0 5.5 2.7 53 4.1 SSW 26 44 14 24 1017.8 1017.8 0.0
26/10:30am 11.9 7.5 2.9 54 4.0 SSW 15 24 8 13 1017.4 1017.3 0.0
26/10:00am 11.4 4.7 3.4 58 3.5 S 28 48 15 26 1017.1 1017.0 0.0
26/09:58am 11.4 4.6 3.2 57 3.6 SSW 28 48 15 26 1017.0 1016.9 0.0
26/09:30am 10.9 4.1 0.9 50 4.2 SSW 26 37 14 20 1016.3 1016.2 0.0
26/09:00am 11.4 5.2 2.4 54 3.9 SSW 24 39 13 21 1015.7 1015.6 12.0
26/08:31am 10.8 4.0 2.9 58 3.4 S 28 48 15 26 1015.3 1015.2 12.0
26/08:30am 11.0 4.2 3.1 58 3.5 S 28 41 15 22 1015.2 1015.1 12.0
26/08:00am 10.2 5.3 3.9 65 2.8 S 19 30 10 16 1014.7 1014.6 12.0
26/07:30am 9.6 4.2 2.7 62 3.0 S 20 39 11 21 1014.0 1013.9 12.0
26/07:00am 10.0 3.9 4.8 70 2.3 S 26 43 14 23 1013.3 1013.2 12.0
26/06:44am 10.3 3.7 4.2 66 2.7 S 28 52 15 28 1012.8 1012.7 12.0
26/06:30am 10.5 3.7 3.3 61 3.2 S 28 41 15 22 1012.4 1012.3 12.0
26/06:00am 10.9 4.9 3.2 59 3.4 SSW 24 44 13 24 1011.8 1011.8 12.0
26/05:30am 10.6 4.7 1.7 54 3.8 S 22 39 12 21 1011.1 1011.1 12.0
26/05:00am 10.9 4.8 2.5 56 3.6 SSW 24 39 13 21 1010.3 1010.3 12.0
26/04:30am 10.6 5.4 3.6 62 3.1 SSW 20 37 11 20 1009.7 1009.7 12.0
26/04:00am 10.3 4.8 3.8 64 2.9 SSW 22 41 12 22 1009.3 1009.3 12.0
26/03:30am 10.2 4.9 5.2 71 2.3 S 22 37 12 20 1008.8 1008.8 12.0
26/03:00am 10.6 5.0 5.2 69 2.5 SSW 24 37 13 20 1008.4 1008.4 12.0
26/02:30am 10.3 5.0 5.1 70 2.4 SSW 22 35 12 19 1008.0 1008.0 12.0
26/02:00am 10.0 5.1 7.1 82 1.4 SSW 22 37 12 20 1007.5 1007.5 12.0
26/01:30am 9.5 4.7 7.3 86 1.0 SSW 22 41 12 22 1007.2 1007.1 11.8
26/01:00am 9.0 3.4 7.0 87 0.9 SSW 26 39 14 21 1007.1 1007.0 11.0
26/12:30am 10.2 7.3 8.3 88 0.9 SW 13 17 7 9 1006.6 1006.5 10.6
26/12:00am 10.2 8.2 8.6 90 0.8 SW 9 17 5 9 1006.3 1006.2 10.6
 
Date/Time
EST
Temp
°C
App
Temp
°C
Dew
Point
°C
Rel
Hum
%
Delta-T
°C
Wind Press
QNH
hPa
Press
MSL
hPa
Rain since
9am
mm
Dir  Spd
km/h
Gust
km/h
Spd
kts
Gust
kts
25/11:53pm 10.2 7.8 8.6 90 0.8 SSW 11 20 6 11 1006.4 1006.3 10.6
25/11:37pm 10.1 6.1 8.4 89 0.8 SW 19 33 10 18 1006.6 1006.5 10.4
25/11:36pm 10.2 6.3 8.5 89 0.8 WSW 19 33 10 18 1006.6 1006.5 10.2
25/11:30pm 10.3 7.1 8.6 89 0.8 WSW 15 20 8 11 1006.3 1006.2 9.6
25/11:17pm 10.2 6.0 8.3 88 0.9 WSW 20 30 11 16 1006.5 1006.4 8.8
25/11:00pm 10.6 6.5 8.7 88 0.9 SW 20 33 11 18 1006.4 1006.3 7.0
25/10:47pm 10.3 5.8 8.4 88 0.9 SW 22 37 12 20 1006.3 1006.2 6.8
25/10:30pm 10.6 4.6 8.7 88 0.9 SSW 30 50 16 27 1006.3 1006.2 6.0
25/10:00pm 10.9 4.6 9.0 88 1.0 SW 32 50 17 27 1005.7 1005.6 5.0
25/09:58pm 10.9 4.9 8.8 87 1.0 SW 30 50 16 27 1005.6 1005.5 5.0
25/09:56pm 11.0 5.1 8.9 87 1.0 SW 30 50 16 27 1005.6 1005.5 5.0
25/09:52pm 11.6 6.6 9.5 87 1.1 WSW 26 39 14 21 1005.4 1005.3 4.8
25/09:41pm 11.5 5.0 8.9 84 1.3 WSW 33 52 18 28 1005.4 1005.3 4.6
25/09:36pm 11.9 5.5 8.4 79 1.7 W 32 52 17 28 1005.4 1005.3 3.6
25/09:34pm 12.5 6.1 8.4 76 2.0 W 32 52 17 28 1005.4 1005.3 3.0
25/09:32pm 13.6 8.0 8.9 73 2.4 W 28 52 15 28 1005.3 1005.2 2.8
25/09:30pm 14.0 8.8 9.0 72 2.5 WNW 26 39 14 21 1005.0 1004.9 2.8
25/09:00pm 14.1 7.7 8.7 70 2.7 WNW 32 46 17 25 1005.2 1005.1 2.8
25/08:30pm 14.0 7.8 9.4 74 2.4 WNW 32 43 17 23 1005.6 1005.5 2.8
25/08:00pm 13.9 7.7 9.5 75 2.3 WNW 32 46 17 25 1005.6 1005.5 2.8
25/07:30pm 13.6 8.2 11.0 84 1.4 WNW 30 41 16 22 1005.8 1005.7 2.8
25/07:00pm 13.3 7.6 11.2 87 1.1 WNW 32 44 17 24 1005.8 1005.7 2.8
25/06:50pm 14.0 9.2 11.7 86 1.2 WNW 28 48 15 26 1005.9 1005.8 2.6
25/06:30pm 13.8 9.9 12.2 90 0.9 NW 24 32 13 17 1005.9 1005.8 2.0
25/06:00pm 13.6 9.7 12.0 90 0.9 WNW 24 35 13 19 1006.0 1005.9 2.0
25/05:30pm 12.8 10.0 11.4 91 0.7 WNW 17 26 9 14 1006.1 1006.0 2.0
25/05:00pm 13.1 10.4 11.7 91 0.8 W 17 22 9 12 1006.4 1006.3 2.0
25/04:59pm 13.1 10.3 11.5 90 0.9 W 17 22 9 12 1006.4 1006.3 2.0
25/04:39pm 12.8 8.6 11.2 90 0.8 WSW 24 33 13 18 1006.4 1006.3 1.8
25/04:30pm 12.7 8.5 11.1 90 0.8 WSW 24 35 13 19 1006.5 1006.4 1.8
25/04:11pm 12.8 7.0 10.9 88 1.0 W 32 46 17 25 1006.8 1006.7 1.2
25/04:08pm 12.9 7.9 11.0 88 1.0 W 28 46 15 25 1006.6 1006.5 1.2
25/04:07pm 13.1 8.2 11.2 88 1.0 W 28 46 15 25 1006.6 1006.5 1.0
25/04:00pm 13.6 9.6 11.7 88 1.0 W 24 35 13 19 1006.6 1006.5 0.8
25/03:43pm 14.0 9.1 11.3 84 1.4 W 28 43 15 23 1006.6 1006.5 0.2
25/03:30pm 15.0 9.5 11.8 81 1.7 W 32 41 17 22 1006.6 1006.5 0.0
25/03:27pm 15.1 10.0 11.9 81 1.7 W 30 41 16 22 1006.5 1006.4 0.0
25/03:00pm 16.0 12.3 12.7 81 1.8 WNW 24 32 13 17 1006.5 1006.4 0.0
25/02:30pm 16.4 12.8 12.0 75 2.4 W 22 28 12 15 1006.8 1006.7 0.0
25/02:00pm 18.0 14.8 12.0 68 3.3 W 20 28 11 15 1007.1 1007.0 0.0
25/01:30pm 17.6 14.2 11.4 67 3.4 WNW 20 30 11 16 1007.7 1007.7 0.0
25/01:00pm 17.6 14.7 12.3 71 2.9 W 19 24 10 13 1008.2 1008.2 0.0
25/12:30pm 17.1 13.8 11.6 70 3.0 WNW 20 26 11 14 1008.8 1008.8 0.0
25/12:00pm 17.5 14.8 13.0 75 2.5 W 19 24 10 13 1009.2 1009.2 0.0
25/11:30am 16.5 14.1 12.8 79 2.1 WNW 17 22 9 12 1009.9 1009.9 0.0
25/11:00am 15.9 14.3 13.9 88 1.1 W 15 19 8 10 1010.1 1010.1 0.0
25/10:30am 15.9 14.8 14.4 91 0.9 W 13 15 7 8 1010.2 1010.2 0.0
25/10:00am 15.3 14.6 14.2 93 0.6 W 11 17 6 9 1010.3 1010.3 0.0
25/09:30am 14.7 14.5 13.7 94 0.6 WSW 7 9 4 5 1010.5 1010.5 0.0
25/09:00am 14.4 13.8 13.4 94 0.6 WSW 9 13 5 7 1010.7 1010.7 11.6
25/08:30am 14.1 13.7 13.1 94 0.6 WSW 7 9 4 5 1010.6 1010.6 11.6
25/08:00am 13.5 12.6 12.6 94 0.5 WNW 9 11 5 6 1010.3 1010.3 11.6
25/07:30am 13.3 12.7 12.4 94 0.5 SW 7 9 4 5 1009.9 1009.9 11.6
25/07:16am 13.1 12.5 12.2 94 0.5 SW 7 11 4 6 1009.8 1009.8 11.6
25/07:00am 12.1 10.8 11.2 94 0.5 WSW 9 11 5 6 1009.8 1009.8 11.6
25/06:30am 12.6 11.8 11.7 94 0.5 WSW 7 7 4 4 1009.7 1009.7 11.4
25/06:00am 12.6 11.4 11.7 94 0.5 W 9 9 5 5 1009.7 1009.7 11.4
25/05:55am 12.9 11.8 12.0 94 0.5 W 9 11 5 6 1009.7 1009.7 11.4
25/05:30am 13.5 12.6 12.6 94 0.5 W 9 11 5 6 1009.6 1009.6 11.4
25/05:20am 13.4 12.9 12.5 94 0.5 W 7 9 4 5 1009.5 1009.5 11.4
25/05:00am 13.7 12.5 12.8 94 0.5 SW 11 13 6 7 1009.3 1009.3 11.4
25/04:30am 13.6 13.3 12.7 94 0.5 SSW 6 7 3 4 1009.2 1009.2 11.4
25/04:21am 13.7 12.9 12.8 94 0.5 SW 9 13 5 7 1009.3 1009.3 11.4
25/04:00am 13.6 11.6 12.7 94 0.5 WSW 15 17 8 9 1009.5 1009.5 11.0
25/03:46am 13.9 11.6 13.0 94 0.5 WSW 17 20 9 11 1009.5 1009.5 10.2
25/03:35am 13.9 12.4 13.0 94 0.5 W 13 17 7 9 1009.4 1009.4 10.2
25/03:30am 13.9 12.4 13.0 94 0.5 W 13 17 7 9 1009.4 1009.4 10.0
25/03:00am 14.2 13.5 13.2 94 0.6 W 9 15 5 8 1009.5 1009.5 9.0
25/02:54am 14.1 13.4 13.1 94 0.6 W 9 11 5 6 1009.6 1009.6 8.6

Other Formats:

Comma delimited format used in spreadsheet applications
http://www.bom.gov.au/fwo/IDV60801/IDV60801.94828.axf

JavaScript Object Notation format (JSON) in row-major order
http://www.bom.gov.au/fwo/IDV60801/IDV60801.94828.json